Time;durP1;ratioP1;P1;durP2;ratioP2;P2;SDS_P1;SDS_P2;PMS_P1;PMS_P2;Temp;Humidity;BMP_temperature;BMP_pressure;BME280_temperature;BME280_humidity;BME280_pressure;Samples;Min_cycle;Max_cycle;Signal;HPM_P1;HPM_P2
2023/07/15 00:02:37;;;;;;;8.65;6.82;;;15.30;99.90;;;;;;8302351;28;20026;-84
2023/07/15 00:06:37;;;;;;;7.45;6.18;;;15.20;99.90;;;;;;8331945;28;20460;-84
2023/07/15 00:10:41;;;;;;;10.57;7.57;;;15.10;99.90;;;;;;8319715;28;20092;-85
2023/07/15 00:14:42;;;;;;;9.88;7.00;;;15.00;99.90;;;;;;8313433;28;20108;-85
2023/07/15 00:18:42;;;;;;;9.65;7.22;;;14.90;99.90;;;;;;8304599;28;20025;-87
2023/07/15 00:22:44;;;;;;;10.65;7.55;;;14.90;99.90;;;;;;8296368;28;20025;-87
2023/07/15 00:26:47;;;;;;;8.13;7.32;;;14.90;99.90;;;;;;8309389;28;20021;-85
2023/07/15 00:30:54;;;;;;;8.68;7.10;;;14.80;99.90;;;;;;8322506;28;20029;-85
2023/07/15 00:34:54;;;;;;;8.65;7.78;;;14.70;99.90;;;;;;8305357;28;20445;-84
2023/07/15 00:38:55;;;;;;;10.45;8.00;;;14.70;99.90;;;;;;8308489;28;20021;-84
2023/07/15 00:43:33;;;;;;;9.95;7.60;;;14.80;99.90;;;;;;8324817;28;20029;-84
2023/07/15 00:47:45;;;;;;;13.05;7.75;;;14.70;99.90;;;;;;8321962;28;20433;-84
2023/07/15 00:51:58;;;;;;;10.73;7.93;;;14.70;99.90;;;;;;8305321;28;20093;-85
2023/07/15 00:55:58;;;;;;;9.13;7.70;;;14.70;99.90;;;;;;8305631;28;20067;-84
2023/07/15 00:59:59;;;;;;;10.07;7.70;;;14.60;99.90;;;;;;8286913;28;20014;-84
2023/07/15 01:04:00;;;;;;;9.90;7.55;;;14.70;99.90;;;;;;8326786;28;20052;-84
2023/07/15 01:08:01;;;;;;;9.82;7.10;;;14.80;99.90;;;;;;8306080;28;20029;-84
2023/07/15 01:12:01;;;;;;;10.60;7.38;;;14.90;99.90;;;;;;8296180;28;20030;-86
2023/07/15 01:16:02;;;;;;;10.00;6.78;;;15.10;99.90;;;;;;8306889;28;20382;-85
2023/07/15 01:20:05;;;;;;;11.80;6.70;;;15.10;99.90;;;;;;8304702;28;20026;-84
2023/07/15 01:24:07;;;;;;;13.48;7.40;;;15.10;99.90;;;;;;8323014;28;20100;-84
2023/07/15 01:28:08;;;;;;;10.68;6.65;;;15.10;99.90;;;;;;8307237;28;20025;-84
2023/07/15 01:32:08;;;;;;;7.88;6.57;;;15.10;99.90;;;;;;8311310;28;20049;-84
2023/07/15 01:36:09;;;;;;;11.02;6.80;;;15.20;99.90;;;;;;8310944;28;20112;-84
2023/07/15 01:40:10;;;;;;;7.55;6.78;;;15.10;99.90;;;;;;8307810;28;20296;-84
2023/07/15 01:44:11;;;;;;;14.07;7.20;;;15.00;99.90;;;;;;8305312;28;20025;-85
2023/07/15 01:48:12;;;;;;;9.65;7.22;;;14.90;99.90;;;;;;8301983;28;20021;-84
2023/07/15 01:52:13;;;;;;;8.20;7.32;;;14.70;99.90;;;;;;8312240;28;20526;-85
2023/07/15 01:56:14;;;;;;;11.75;6.93;;;14.70;99.90;;;;;;8290891;28;20083;-84
2023/07/15 02:00:16;;;;;;;9.55;7.10;;;14.60;99.90;;;;;;8295021;28;20013;-85
2023/07/15 02:04:16;;;;;;;8.70;6.80;;;14.70;99.90;;;;;;8294277;28;20495;-85
2023/07/15 02:08:18;;;;;;;10.07;7.20;;;14.70;99.90;;;;;;8298471;28;20017;-84
2023/07/15 02:12:19;;;;;;;12.82;6.93;;;14.70;99.90;;;;;;8294685;28;20026;-84
2023/07/15 02:16:19;;;;;;;7.97;6.20;;;14.90;99.90;;;;;;8295362;28;20032;-84
2023/07/15 02:20:21;;;;;;;11.48;6.90;;;15.00;99.90;;;;;;8293650;28;20021;-84
2023/07/15 02:24:21;;;;;;;7.88;6.45;;;15.00;99.90;;;;;;8282166;28;20025;-84
2023/07/15 02:28:26;;;;;;;6.75;6.05;;;15.00;99.90;;;;;;8295449;28;20487;-84
2023/07/15 02:32:42;;;;;;;7.50;6.45;;;15.10;99.90;;;;;;8316006;28;20013;-84
2023/07/15 02:36:43;;;;;;;7.25;6.22;;;15.00;99.90;;;;;;8310120;28;20513;-84
2023/07/15 02:40:45;;;;;;;12.18;6.18;;;15.00;99.90;;;;;;8306903;28;20022;-84
2023/07/15 02:44:47;;;;;;;8.82;6.10;;;14.90;99.90;;;;;;8297039;28;20022;-84
2023/07/15 02:48:47;;;;;;;7.78;5.75;;;14.80;99.90;;;;;;8323526;28;20053;-85
2023/07/15 02:52:48;;;;;;;8.25;5.60;;;14.80;99.90;;;;;;8310949;28;20018;-84
2023/07/15 02:56:50;;;;;;;8.75;6.53;;;14.70;99.90;;;;;;8284742;28;20049;-84
2023/07/15 03:00:51;;;;;;;9.75;6.45;;;14.70;99.90;;;;;;8292969;28;20654;-84
2023/07/15 03:04:53;;;;;;;11.18;6.57;;;14.70;99.90;;;;;;8322574;28;20022;-84
2023/07/15 03:08:54;;;;;;;8.65;6.28;;;14.60;99.90;;;;;;8309659;28;20131;-85
2023/07/15 03:12:54;;;;;;;9.10;6.63;;;14.60;99.90;;;;;;8304769;28;20033;-84
2023/07/15 03:16:55;;;;;;;7.40;5.47;;;14.60;99.90;;;;;;8309919;28;20422;-84
2023/07/15 03:20:58;;;;;;;9.50;5.80;;;14.50;99.90;;;;;;8310879;28;20040;-85
2023/07/15 03:24:58;;;;;;;9.23;6.47;;;14.50;99.90;;;;;;8310531;28;20025;-84
2023/07/15 03:28:59;;;;;;;7.55;5.95;;;14.50;99.90;;;;;;8328351;28;20076;-84
2023/07/15 03:33:00;;;;;;;7.53;5.90;;;14.50;99.90;;;;;;8332252;28;20549;-84
2023/07/15 03:37:00;;;;;;;6.63;5.90;;;14.50;99.90;;;;;;8328162;28;20030;-84
2023/07/15 03:41:01;;;;;;;10.65;6.47;;;14.50;99.90;;;;;;8312904;28;20204;-84
2023/07/15 03:45:02;;;;;;;10.50;5.88;;;14.40;99.90;;;;;;8328623;28;20454;-85
2023/07/15 03:49:02;;;;;;;8.60;6.32;;;14.40;99.90;;;;;;8332275;28;20079;-84
2023/07/15 03:53:03;;;;;;;7.68;6.15;;;14.40;99.90;;;;;;8295207;28;20711;-84
2023/07/15 03:57:04;;;;;;;7.70;6.25;;;14.50;99.90;;;;;;8293229;28;20671;-84
2023/07/15 04:01:05;;;;;;;8.27;5.63;;;14.60;99.90;;;;;;8285990;28;20037;-84
2023/07/15 04:05:06;;;;;;;7.55;6.03;;;14.90;99.90;;;;;;8304462;28;20099;-84
2023/07/15 04:09:11;;;;;;;10.55;5.47;;;15.60;99.90;;;;;;8309208;28;20483;-84
2023/07/15 04:13:12;;;;;;;10.48;5.03;;;15.80;99.90;;;;;;8327820;28;20033;-84
2023/07/15 04:17:12;;;;;;;6.32;5.05;;;16.20;99.90;;;;;;8307722;28;20483;-85
2023/07/15 04:21:13;;;;;;;5.03;4.53;;;16.80;99.90;;;;;;8305470;28;20479;-85
2023/07/15 04:25:14;;;;;;;6.68;4.78;;;17.30;99.90;;;;;;8300417;28;20025;-84
2023/07/15 04:29:15;;;;;;;7.65;3.97;;;17.80;99.90;;;;;;8307428;28;20117;-85
2023/07/15 04:33:16;;;;;;;6.25;3.85;;;18.70;99.90;;;;;;8309397;28;20029;-85
2023/07/15 04:37:17;;;;;;;6.72;3.70;;;19.60;99.90;;;;;;8312443;28;20022;-85
2023/07/15 04:41:18;;;;;;;4.10;3.53;;;19.80;99.90;;;;;;8316902;28;20556;-85
2023/07/15 04:45:18;;;;;;;10.55;4.20;;;20.10;99.90;;;;;;8303367;28;20030;-84
2023/07/15 04:49:19;;;;;;;8.02;3.75;;;20.00;99.90;;;;;;8319120;28;20032;-85
2023/07/15 04:53:19;;;;;;;6.60;4.00;;;20.10;99.90;;;;;;8313601;28;20028;-84
2023/07/15 04:57:20;;;;;;;8.55;3.75;;;20.60;99.90;;;;;;8302024;28;20553;-85
2023/07/15 05:01:22;;;;;;;8.50;3.40;;;21.30;99.90;;;;;;8304550;28;20079;-84
2023/07/15 05:05:22;;;;;;;5.38;3.53;;;21.90;99.90;;;;;;8309031;28;20384;-85
2023/07/15 05:09:23;;;;;;;5.45;3.33;;;22.10;99.90;;;;;;8303938;28;20053;-86
2023/07/15 05:13:25;;;;;;;6.10;3.17;;;22.70;99.90;;;;;;8312032;28;20029;-85
2023/07/15 05:17:25;;;;;;;5.55;3.40;;;23.60;99.90;;;;;;8329727;28;20024;-86
2023/07/15 05:21:26;;;;;;;4.20;2.90;;;23.50;99.90;;;;;;8308394;28;20104;-86
2023/07/15 05:25:27;;;;;;;7.38;3.72;;;24.40;99.90;;;;;;8329140;28;20024;-85
2023/07/15 05:29:27;;;;;;;7.05;3.33;;;24.50;99.90;;;;;;8311705;28;20517;-86
2023/07/15 05:33:28;;;;;;;5.28;2.80;;;24.30;99.90;;;;;;8290363;28;20065;-86
2023/07/15 05:37:29;;;;;;;6.90;3.47;;;24.90;99.90;;;;;;8300677;28;20021;-85
2023/07/15 05:41:30;;;;;;;5.70;3.35;;;26.20;99.90;;;;;;8309192;28;20092;-87
2023/07/15 05:45:30;;;;;;;5.93;2.75;;;26.40;99.90;;;;;;8264571;28;20035;-81
2023/07/15 05:49:31;;;;;;;4.70;2.60;;;27.40;99.90;;;;;;8273335;28;20034;-80
2023/07/15 05:53:31;;;;;;;4.75;3.60;;;28.40;99.90;;;;;;8310898;28;20026;-81
2023/07/15 05:57:32;;;;;;;6.32;4.28;;;28.50;99.90;;;;;;8276684;28;20030;-81
2023/07/15 06:01:33;;;;;;;6.10;2.85;;;28.30;99.90;;;;;;8302654;28;20017;-82
2023/07/15 06:05:33;;;;;;;2.95;2.65;;;28.70;99.90;;;;;;8311681;28;20029;-81
2023/07/15 06:09:34;;;;;;;4.93;2.65;;;29.70;99.90;;;;;;8298593;28;20031;-81
2023/07/15 06:13:34;;;;;;;4.53;2.83;;;29.90;99.90;;;;;;8321752;28;20087;-81
2023/07/15 06:17:35;;;;;;;3.78;3.00;;;30.00;99.90;;;;;;8293237;28;20026;-81
2023/07/15 06:21:36;;;;;;;4.82;2.88;;;30.10;99.90;;;;;;8292894;28;20484;-81
2023/07/15 06:25:37;;;;;;;3.90;2.65;;;29.90;99.90;;;;;;8289205;28;20029;-82
2023/07/15 06:29:38;;;;;;;3.53;2.60;;;30.50;99.90;;;;;;8294143;28;20033;-81
2023/07/15 06:33:39;;;;;;;3.90;2.83;;;31.10;99.90;;;;;;8289811;28;20026;-82
2023/07/15 06:37:39;;;;;;;3.88;2.90;;;31.40;99.90;;;;;;8280647;28;20040;-81
2023/07/15 06:41:40;;;;;;;5.97;2.83;;;32.50;99.90;;;;;;8288557;28;20018;-81
2023/07/15 06:45:40;;;;;;;4.35;2.80;;;33.00;99.60;;;;;;8274664;28;20038;-81
2023/07/15 06:49:41;;;;;;;3.67;3.00;;;33.10;99.90;;;;;;8286319;28;20032;-81
2023/07/15 06:53:41;;;;;;;5.15;2.80;;;33.30;99.70;;;;;;8300072;28;20575;-81
2023/07/15 06:57:42;;;;;;;3.20;2.47;;;33.80;96.70;;;;;;8298403;28;20025;-81
2023/07/15 07:01:42;;;;;;;3.22;2.33;;;34.00;90.90;;;;;;8289360;28;20026;-86
2023/07/15 07:05:43;;;;;;;3.60;2.10;;;33.40;92.30;;;;;;8292794;28;20026;-85
2023/07/15 07:09:44;;;;;;;3.90;2.80;;;33.70;87.60;;;;;;8290362;28;20064;-85
2023/07/15 07:13:46;;;;;;;4.80;2.45;;;33.70;92.60;;;;;;8286469;28;20619;-85
2023/07/15 07:54:18;;;;;;;2.95;2.50;;;34.10;88.50;;;;;;8244481;27;20477;-83
2023/07/15 07:58:19;;;;;;;5.55;3.05;;;34.50;89.80;;;;;;8267820;28;20562;-83
2023/07/15 08:02:20;;;;;;;3.45;2.50;;;34.40;90.10;;;;;;8283071;28;20034;-84
2023/07/15 08:06:21;;;;;;;5.20;2.28;;;35.30;84.90;;;;;;8272276;28;20035;-86
2023/07/15 08:10:22;;;;;;;5.25;2.25;;;35.50;76.30;;;;;;8266499;28;20389;-85
2023/07/15 08:14:22;;;;;;;3.33;2.20;;;35.40;79.80;;;;;;8279872;28;20062;-85
2023/07/15 08:58:07;;;;;;;2.17;1.92;;;35.40;70.90;;;;;;8350414;28;20481;-81
2023/07/15 09:02:07;;;;;;;2.17;1.98;;;35.50;67.00;;;;;;8325638;28;20042;-80
2023/07/15 09:06:08;;;;;;;2.40;2.20;;;35.60;66.50;;;;;;8326778;28;20083;-78
2023/07/15 09:10:12;;;;;;;2.28;2.08;;;35.40;73.30;;;;;;8314012;23;20054;-83
2023/07/15 09:14:17;;;;;;;2.35;2.15;;;35.20;73.10;;;;;;8304416;28;20506;-83
2023/07/15 09:18:18;;;;;;;2.35;2.15;;;35.40;73.40;;;;;;8337503;28;20026;-83
2023/07/15 09:22:19;;;;;;;2.72;2.10;;;35.80;69.00;;;;;;8342875;28;20104;-84
2023/07/15 09:26:20;;;;;;;3.83;2.05;;;35.80;74.40;;;;;;8327986;28;20160;-83
2023/07/15 09:30:20;;;;;;;3.28;2.20;;;36.00;68.50;;;;;;8328409;28;20034;-83
2023/07/15 09:34:21;;;;;;;3.00;2.13;;;35.80;70.30;;;;;;8329563;28;20033;-83
2023/07/15 09:38:22;;;;;;;1.85;1.75;;;35.90;62.70;;;;;;8332547;28;20401;-83
2023/07/15 09:42:23;;;;;;;3.60;2.47;;;35.70;66.70;;;;;;8345665;28;20033;-83
2023/07/15 09:46:27;;;;;;;2.50;2.00;;;35.70;69.20;;;;;;8317233;28;20038;-81
2023/07/15 09:50:28;;;;;;;4.45;1.90;;;35.80;65.70;;;;;;8347598;28;20020;-83
2023/07/15 09:54:31;;;;;;;2.10;1.90;;;35.70;67.40;;;;;;8348525;28;20029;-83
2023/07/15 09:58:35;;;;;;;2.30;2.05;;;35.90;63.20;;;;;;8301268;28;20021;-83
2023/07/15 10:02:41;;;;;;;1.95;1.85;;;35.70;68.50;;;;;;8300923;28;20046;-83
2023/07/15 10:06:43;;;;;;;2.15;1.95;;;35.40;62.30;;;;;;8308910;28;20623;-83
2023/07/15 10:10:44;;;;;;;2.83;2.00;;;35.30;64.80;;;;;;8309208;28;20080;-82
2023/07/15 10:14:45;;;;;;;3.25;1.90;;;35.40;62.60;;;;;;8309589;28;20026;-82
2023/07/15 10:18:46;;;;;;;2.22;1.88;;;35.40;59.60;;;;;;8304443;28;20026;-82
2023/07/15 10:22:49;;;;;;;2.22;1.80;;;35.70;62.10;;;;;;8309122;28;20570;-83
2023/07/15 10:26:49;;;;;;;2.90;1.95;;;35.30;61.20;;;;;;8315766;28;20025;-83
2023/07/15 10:31:07;;;;;;;3.28;1.95;;;35.30;60.50;;;;;;8338628;28;20025;-84
2023/07/15 10:35:08;;;;;;;2.35;1.98;;;35.80;60.70;;;;;;8312570;28;20235;-84
2023/07/15 10:39:10;;;;;;;2.55;1.85;;;35.90;62.20;;;;;;8280854;28;20032;-84
2023/07/15 10:43:11;;;;;;;1.75;1.65;;;35.90;58.80;;;;;;8302254;28;20549;-84
2023/07/15 10:47:15;;;;;;;4.60;2.17;;;35.90;56.80;;;;;;8284966;28;20421;-83
2023/07/15 10:51:16;;;;;;;1.90;1.75;;;36.20;60.80;;;;;;8285054;28;20029;-84
2023/07/15 10:55:17;;;;;;;2.78;1.80;;;36.90;59.10;;;;;;8287403;28;20026;-82
2023/07/15 10:59:17;;;;;;;1.80;1.65;;;37.50;63.80;;;;;;8340391;28;20085;-83
2023/07/15 11:03:20;;;;;;;2.03;1.77;;;37.70;57.20;;;;;;8308751;28;20033;-82
2023/07/15 11:07:21;;;;;;;2.38;2.17;;;37.90;54.40;;;;;;8285397;28;20512;-82
2023/07/15 11:11:23;;;;;;;2.08;1.88;;;37.40;58.50;;;;;;8289457;28;20047;-82
2023/07/15 11:15:28;;;;;;;4.20;1.70;;;37.50;62.80;;;;;;8301483;28;20033;-83
2023/07/15 11:19:29;;;;;;;2.42;2.00;;;37.90;58.50;;;;;;8291736;28;20273;-82
2023/07/15 11:23:30;;;;;;;2.00;1.80;;;38.40;53.30;;;;;;8288853;28;20030;-82
2023/07/15 11:27:31;;;;;;;2.30;2.10;;;38.10;54.30;;;;;;8292450;28;20022;-84
2023/07/15 11:31:32;;;;;;;4.18;2.13;;;38.60;57.20;;;;;;8289567;28;20045;-83
2023/07/15 11:35:34;;;;;;;2.10;1.90;;;39.80;54.20;;;;;;8287391;28;20029;-82
2023/07/15 11:39:40;;;;;;;2.17;1.90;;;40.00;51.10;;;;;;8301511;28;20026;-82
2023/07/15 11:43:41;;;;;;;1.95;1.80;;;39.80;50.20;;;;;;8288344;28;20442;-81
2023/07/15 11:47:42;;;;;;;3.00;1.90;;;40.00;54.10;;;;;;8285657;28;20056;-82
2023/07/15 11:51:43;;;;;;;2.03;1.80;;;39.80;49.50;;;;;;8282513;28;20037;-80
2023/07/15 11:55:44;;;;;;;4.15;2.15;;;39.80;48.90;;;;;;8285866;28;20030;-82
2023/07/15 11:59:49;;;;;;;3.90;2.15;;;40.10;49.60;;;;;;8284586;28;20030;-82
2023/07/15 12:03:50;;;;;;;3.60;2.53;;;40.10;47.90;;;;;;8280021;28;20034;-84
2023/07/15 12:07:51;;;;;;;2.15;1.95;;;40.50;46.90;;;;;;8274160;28;20046;-83
2023/07/15 12:11:52;;;;;;;2.40;2.20;;;40.50;48.90;;;;;;8292378;28;20025;-83
2023/07/15 12:15:53;;;;;;;2.80;2.45;;;40.30;47.00;;;;;;8283255;28;20457;-85
2023/07/15 12:19:53;;;;;;;2.60;2.00;;;40.30;47.70;;;;;;8289000;28;20022;-83
2023/07/15 12:23:57;;;;;;;2.15;1.80;;;40.50;50.20;;;;;;8296407;28;20026;-84
2023/07/15 12:27:58;;;;;;;2.13;2.00;;;41.20;49.50;;;;;;8292709;28;20472;-84
2023/07/15 12:31:58;;;;;;;2.40;2.08;;;42.10;43.30;;;;;;8290089;28;20076;-82
2023/07/15 12:35:59;;;;;;;4.28;2.08;;;41.80;43.30;;;;;;8295993;28;20445;-84
2023/07/15 12:39:59;;;;;;;2.20;2.00;;;41.30;46.10;;;;;;8313176;28;20037;-86
2023/07/15 12:44:00;;;;;;;5.05;2.30;;;42.00;43.50;;;;;;8297230;28;20104;-83
2023/07/15 12:48:00;;;;;;;3.47;2.10;;;41.50;44.40;;;;;;8296525;28;20506;-82
2023/07/15 12:52:01;;;;;;;2.78;2.15;;;41.70;43.80;;;;;;8297361;28;20045;-83
2023/07/15 12:56:01;;;;;;;2.58;2.00;;;42.00;42.30;;;;;;8313914;28;20036;-84
2023/07/15 13:00:05;;;;;;;2.13;1.92;;;41.90;45.60;;;;;;8292711;28;20034;-84
2023/07/15 13:04:05;;;;;;;2.30;1.98;;;43.50;42.70;;;;;;8311135;28;20682;-84
2023/07/15 13:08:06;;;;;;;2.38;2.17;;;44.10;38.90;;;;;;8308550;28;20026;-84
2023/07/15 13:12:07;;;;;;;3.30;2.35;;;43.80;39.70;;;;;;8296001;28;20404;-82
2023/07/15 13:16:07;;;;;;;2.40;2.20;;;43.70;40.60;;;;;;8297351;28;20038;-83
2023/07/15 13:20:09;;;;;;;2.42;2.22;;;43.70;39.20;;;;;;8296983;28;20077;-83
2023/07/15 13:24:09;;;;;;;2.92;2.00;;;43.60;39.10;;;;;;8296292;28;20038;-84
2023/07/15 13:28:10;;;;;;;3.63;2.55;;;43.20;38.40;;;;;;8307232;28;20019;-84
2023/07/15 13:32:10;;;;;;;2.30;2.05;;;42.90;39.80;;;;;;8321469;28;20018;-86
2023/07/15 13:36:11;;;;;;;3.03;2.30;;;43.90;39.30;;;;;;8307227;28;20037;-85
2023/07/15 13:40:11;;;;;;;4.80;2.33;;;44.20;38.60;;;;;;8307289;28;20037;-84
2023/07/15 13:44:12;;;;;;;3.03;2.05;;;43.60;37.60;;;;;;8307619;28;20025;-84
2023/07/15 13:48:12;;;;;;;3.22;2.00;;;43.80;38.50;;;;;;8305027;28;20025;-83
2023/07/15 13:52:13;;;;;;;2.60;2.40;;;44.50;37.20;;;;;;8305439;28;20095;-83
2023/07/15 13:56:14;;;;;;;2.63;2.42;;;43.90;36.70;;;;;;8305835;28;20026;-85
2023/07/15 14:00:15;;;;;;;2.97;2.00;;;43.60;39.00;;;;;;8306248;28;20026;-84
2023/07/15 14:04:15;;;;;;;2.60;2.30;;;43.30;35.20;;;;;;8321433;28;20494;-82
2023/07/15 14:08:19;;;;;;;3.53;2.20;;;42.80;38.00;;;;;;8304939;28;20041;-84
2023/07/15 14:12:20;;;;;;;2.38;2.17;;;42.90;39.00;;;;;;8302913;28;20030;-85
2023/07/15 14:16:20;;;;;;;2.80;2.10;;;44.70;36.20;;;;;;8318254;28;20447;-85
2023/07/15 14:20:21;;;;;;;3.25;2.30;;;45.30;36.60;;;;;;8302195;28;20500;-84
2023/07/15 14:24:22;;;;;;;2.60;2.30;;;45.60;33.90;;;;;;8303264;28;20022;-84
2023/07/15 14:28:23;;;;;;;2.53;2.33;;;44.70;35.60;;;;;;8300627;28;20034;-83
2023/07/15 14:32:23;;;;;;;5.03;2.47;;;44.60;34.70;;;;;;8299564;28;20498;-84
2023/07/15 14:36:25;;;;;;;5.05;2.28;;;45.30;34.30;;;;;;8319609;28;20025;-82
2023/07/15 14:40:26;;;;;;;2.80;2.42;;;44.20;34.70;;;;;;8303889;28;20026;-84
2023/07/15 14:44:26;;;;;;;2.92;2.40;;;43.90;36.20;;;;;;8301640;28;20501;-86
2023/07/15 14:48:27;;;;;;;2.83;2.55;;;44.30;33.90;;;;;;8318045;28;20022;-82
2023/07/15 14:52:27;;;;;;;7.45;2.17;;;45.20;35.20;;;;;;8317866;28;20026;-82
2023/07/15 14:56:28;;;;;;;3.42;2.10;;;44.90;34.90;;;;;;8301479;28;20025;-83
2023/07/15 15:00:29;;;;;;;2.30;2.10;;;44.40;34.50;;;;;;8305284;28;20025;-81
2023/07/15 15:04:29;;;;;;;4.40;2.63;;;44.30;33.40;;;;;;8317626;28;20045;-81
2023/07/15 15:08:30;;;;;;;3.13;2.20;;;43.70;36.90;;;;;;8322089;23;20049;-83
2023/07/15 15:12:30;;;;;;;2.28;2.05;;;42.50;36.40;;;;;;8297663;28;20459;-84
2023/07/15 15:16:31;;;;;;;2.72;2.22;;;39.90;38.30;;;;;;8294687;28;20041;-85
2023/07/15 15:20:31;;;;;;;2.97;2.33;;;38.70;42.60;;;;;;8275867;28;20117;-85
2023/07/15 15:24:32;;;;;;;3.30;2.15;;;38.00;41.70;;;;;;8282210;28;20033;-83
2023/07/15 15:28:32;;;;;;;4.85;2.25;;;37.40;42.10;;;;;;8268070;28;20227;-84
2023/07/15 15:32:33;;;;;;;3.88;2.20;;;37.20;44.70;;;;;;8284585;28;20546;-84
2023/07/15 15:36:34;;;;;;;3.13;2.35;;;37.40;46.30;;;;;;8308571;28;20038;-84
2023/07/15 15:40:34;;;;;;;2.63;2.28;;;39.20;45.40;;;;;;8280999;28;20451;-84
2023/07/15 15:44:35;;;;;;;4.80;2.53;;;41.50;39.50;;;;;;8265415;28;20210;-84
2023/07/15 15:48:35;;;;;;;3.20;2.90;;;41.60;39.20;;;;;;8282685;28;20028;-84
2023/07/15 15:52:36;;;;;;;4.75;2.65;;;40.50;42.90;;;;;;8279884;28;20023;-83
2023/07/15 15:56:38;;;;;;;3.83;2.38;;;39.20;42.80;;;;;;8280285;28;20030;-83
2023/07/15 16:00:43;;;;;;;2.80;2.20;;;38.20;42.80;;;;;;8284648;28;20120;-84
2023/07/15 16:04:44;;;;;;;4.88;2.70;;;37.20;44.70;;;;;;8284332;28;20042;-84
2023/07/15 16:08:46;;;;;;;3.47;2.35;;;36.60;45.40;;;;;;8282359;28;20026;-84
2023/07/15 16:12:46;;;;;;;2.83;2.45;;;36.10;48.80;;;;;;8267127;28;20022;-85
2023/07/15 16:16:47;;;;;;;4.03;2.58;;;35.70;50.90;;;;;;8283741;28;20029;-84
2023/07/15 16:20:47;;;;;;;2.63;2.20;;;35.50;46.80;;;;;;8289385;28;20515;-85
2023/07/15 16:24:48;;;;;;;3.47;2.17;;;35.50;48.10;;;;;;8268609;28;20018;-85
2023/07/15 16:28:49;;;;;;;3.97;2.40;;;35.30;47.90;;;;;;8285303;28;20088;-84
2023/07/15 16:32:49;;;;;;;3.13;2.25;;;35.00;47.70;;;;;;8267586;28;20033;-85
2023/07/15 16:36:50;;;;;;;2.40;2.20;;;34.90;49.70;;;;;;8270874;28;20028;-84
2023/07/15 16:40:50;;;;;;;3.80;2.50;;;34.90;49.80;;;;;;8280781;28;20034;-85
2023/07/15 16:44:51;;;;;;;3.67;2.30;;;34.80;50.60;;;;;;8296158;28;20026;-85
2023/07/15 16:48:51;;;;;;;3.75;2.55;;;34.80;52.90;;;;;;8289421;28;20023;-85
2023/07/15 16:52:52;;;;;;;3.60;2.80;;;34.30;56.10;;;;;;8268103;28;20034;-85
2023/07/15 16:56:52;;;;;;;3.30;2.60;;;33.80;58.60;;;;;;8274354;28;20034;-85
2023/07/15 17:00:53;;;;;;;5.05;2.75;;;33.30;59.20;;;;;;8289831;28;20038;-86
2023/07/15 17:04:56;;;;;;;3.70;3.00;;;33.30;55.40;;;;;;8263128;28;20034;-86
2023/07/15 17:08:57;;;;;;;5.55;3.15;;;32.90;57.60;;;;;;8268373;28;20623;-86
2023/07/15 17:12:58;;;;;;;5.20;3.10;;;32.70;59.30;;;;;;8264632;28;20033;-85
2023/07/15 17:16:58;;;;;;;4.25;2.92;;;32.40;60.70;;;;;;8276395;28;20038;-85
2023/07/15 17:20:59;;;;;;;5.70;3.63;;;31.90;58.80;;;;;;8276184;28;20500;-86
2023/07/15 17:25:00;;;;;;;6.63;3.28;;;31.50;64.40;;;;;;8273595;28;20423;-85
2023/07/15 17:29:00;;;;;;;4.57;3.30;;;31.20;65.10;;;;;;8281653;28;20030;-84
2023/07/15 17:33:01;;;;;;;4.32;3.17;;;31.00;68.10;;;;;;8308882;28;20098;-85
2023/07/15 17:37:01;;;;;;;5.53;3.53;;;30.70;68.70;;;;;;8272043;28;20124;-85
2023/07/15 17:41:02;;;;;;;4.25;3.35;;;30.20;72.90;;;;;;8289756;28;20049;-85
2023/07/15 17:45:03;;;;;;;4.75;3.63;;;29.90;76.90;;;;;;8270622;28;20034;-85
2023/07/15 17:49:03;;;;;;;4.65;3.42;;;29.60;83.00;;;;;;8283923;28;20030;-85
2023/07/15 17:53:04;;;;;;;19.70;4.68;;;29.50;82.80;;;;;;8269554;28;20046;-85
2023/07/15 17:57:04;;;;;;;6.88;3.80;;;29.70;81.80;;;;;;8268016;28;20522;-84
2023/07/15 18:01:05;;;;;;;4.45;3.35;;;29.30;86.00;;;;;;8286159;28;20034;-84
2023/07/15 18:05:06;;;;;;;4.13;2.90;;;28.80;88.00;;;;;;8267306;28;20034;-83
2023/07/15 18:09:09;;;;;;;3.20;2.78;;;28.30;89.40;;;;;;8268671;28;20030;-85
2023/07/15 18:13:09;;;;;;;5.68;3.17;;;28.10;86.10;;;;;;8267882;28;20034;-84
2023/07/15 18:17:10;;;;;;;6.05;3.17;;;27.80;87.10;;;;;;8275472;28;20065;-85
2023/07/15 18:21:10;;;;;;;4.00;2.70;;;27.30;91.80;;;;;;8274302;28;20045;-85
2023/07/15 18:25:11;;;;;;;8.75;3.20;;;26.90;93.20;;;;;;8267647;28;20030;-85
2023/07/15 18:29:12;;;;;;;4.88;3.50;;;26.70;91.70;;;;;;8284315;28;20029;-85
2023/07/15 18:33:13;;;;;;;4.78;3.08;;;26.70;92.30;;;;;;8268688;28;20018;-85
2023/07/15 18:37:13;;;;;;;4.60;3.38;;;26.70;93.80;;;;;;8287522;28;20037;-83
2023/07/15 18:41:14;;;;;;;4.38;2.97;;;26.40;94.20;;;;;;8287236;28;20022;-83
2023/07/15 18:45:14;;;;;;;5.22;3.50;;;26.30;92.80;;;;;;8289958;28;20038;-83
2023/07/15 18:49:15;;;;;;;4.15;3.42;;;26.00;92.10;;;;;;8290732;28;20085;-84
2023/07/15 18:53:15;;;;;;;4.63;3.05;;;25.80;94.60;;;;;;8290283;28;20030;-84
2023/07/15 18:57:16;;;;;;;4.85;3.20;;;25.40;95.80;;;;;;8271755;28;20030;-85
2023/07/15 19:01:16;;;;;;;3.38;3.03;;;24.90;95.90;;;;;;8287083;28;20046;-84
2023/07/15 19:05:17;;;;;;;6.97;3.20;;;24.90;98.50;;;;;;8287302;28;20030;-84
2023/07/15 19:09:18;;;;;;;6.72;3.97;;;24.40;99.90;;;;;;8284118;28;20085;-84
2023/07/15 19:13:19;;;;;;;4.72;3.50;;;24.00;99.90;;;;;;8268520;28;20542;-84
2023/07/15 19:17:19;;;;;;;3.70;3.35;;;23.70;99.90;;;;;;8283191;28;20038;-84
2023/07/15 19:21:20;;;;;;;7.00;3.97;;;23.90;99.90;;;;;;8267104;28;20022;-85
2023/07/15 19:25:20;;;;;;;4.78;3.40;;;23.90;99.90;;;;;;8282171;28;20107;-84
2023/07/15 19:29:21;;;;;;;9.98;3.50;;;23.70;99.90;;;;;;8281449;28;20053;-84
2023/07/15 19:33:21;;;;;;;3.95;3.50;;;23.70;99.90;;;;;;8284342;28;20025;-83
2023/07/15 19:37:22;;;;;;;4.43;3.25;;;24.10;99.90;;;;;;8282779;28;20035;-84
2023/07/15 19:41:22;;;;;;;4.60;4.00;;;24.30;99.90;;;;;;8282519;28;20042;-84
2023/07/15 19:45:23;;;;;;;5.22;3.35;;;24.30;99.90;;;;;;8282947;28;20450;-83
2023/07/15 19:49:23;;;;;;;7.25;3.58;;;24.40;99.90;;;;;;8290832;28;20510;-83
2023/07/15 19:53:24;;;;;;;5.75;3.70;;;24.70;99.90;;;;;;8307241;28;20030;-84
2023/07/15 19:57:24;;;;;;;6.97;3.35;;;24.50;99.90;;;;;;8268766;28;20041;-83
2023/07/15 20:01:25;;;;;;;4.20;3.30;;;24.20;99.90;;;;;;8273931;28;20595;-84
2023/07/15 20:05:25;;;;;;;5.85;3.67;;;24.20;99.90;;;;;;8267595;28;20451;-84
2023/07/15 20:09:26;;;;;;;5.15;3.70;;;24.30;99.90;;;;;;8286519;28;20492;-84
2023/07/15 20:13:26;;;;;;;5.25;3.70;;;24.40;99.90;;;;;;8286567;28;20098;-84
2023/07/15 20:17:27;;;;;;;4.82;3.72;;;24.20;99.90;;;;;;8283157;28;20025;-85
2023/07/15 20:21:28;;;;;;;5.82;4.28;;;24.20;99.90;;;;;;8287752;28;20038;-85
2023/07/15 20:25:32;;;;;;;4.63;4.00;;;23.90;99.90;;;;;;8282203;28;20039;-84
2023/07/15 20:29:32;;;;;;;8.70;4.03;;;23.70;99.90;;;;;;8267113;28;20045;-85
2023/07/15 20:33:33;;;;;;;7.60;4.15;;;23.60;99.90;;;;;;8280988;28;20023;-84
2023/07/15 20:37:33;;;;;;;7.50;4.20;;;23.40;99.90;;;;;;8280517;28;20484;-84
2023/07/15 20:41:34;;;;;;;6.13;4.25;;;23.30;99.90;;;;;;8283133;28;20088;-84
2023/07/15 20:45:35;;;;;;;8.63;4.55;;;23.30;99.90;;;;;;8283197;28;20031;-84
2023/07/15 20:49:35;;;;;;;8.10;4.93;;;23.30;99.90;;;;;;8267340;28;20718;-84
2023/07/15 20:53:36;;;;;;;6.22;4.43;;;23.50;99.90;;;;;;8287048;28;20026;-83
2023/07/15 20:57:37;;;;;;;7.85;4.45;;;23.70;99.90;;;;;;8277566;28;20492;-87
2023/07/15 21:01:37;;;;;;;5.53;4.50;;;23.60;99.90;;;;;;8254027;28;20030;-87
2023/07/15 21:05:38;;;;;;;8.10;4.72;;;23.50;99.90;;;;;;8258768;28;20108;-87
2023/07/15 21:09:38;;;;;;;6.30;4.60;;;23.30;99.90;;;;;;8276941;28;20591;-87
2023/07/15 21:13:46;;;;;;;7.88;4.60;;;23.00;99.90;;;;;;8323828;23;20034;-91
2023/07/15 21:18:12;;;;;;;9.55;5.03;;;23.10;99.90;;;;;;8326536;28;20029;-93
2023/07/15 21:26:43;;;;;;;7.72;6.10;;;22.30;99.90;;;;;;8319683;23;20415;-85
2023/07/15 21:30:45;;;;;;;9.20;5.18;;;22.00;99.90;;;;;;8310142;28;20134;-85
2023/07/15 21:34:49;;;;;;;8.90;5.63;;;22.20;99.90;;;;;;8298450;28;20190;-84
2023/07/15 21:38:50;;;;;;;9.93;5.63;;;22.40;99.90;;;;;;8276341;28;20033;-85
2023/07/15 21:42:54;;;;;;;9.88;5.18;;;22.60;99.90;;;;;;8283356;28;20487;-84
2023/07/15 21:46:54;;;;;;;6.32;4.90;;;22.60;99.90;;;;;;8279441;28;20559;-84
2023/07/15 21:50:55;;;;;;;9.77;5.53;;;22.70;99.90;;;;;;8276794;28;20102;-84
2023/07/15 21:54:56;;;;;;;7.60;5.45;;;22.50;99.90;;;;;;8286011;28;20112;-84
2023/07/15 21:58:56;;;;;;;7.75;5.32;;;22.40;99.90;;;;;;8300792;28;20531;-84
2023/07/15 22:02:57;;;;;;;13.38;5.70;;;22.50;99.90;;;;;;8285549;28;20221;-84
2023/07/15 22:06:57;;;;;;;6.93;5.13;;;22.50;99.90;;;;;;8279585;28;20041;-85
2023/07/15 22:10:58;;;;;;;6.20;5.07;;;22.50;99.90;;;;;;8292925;28;20026;-84
2023/07/15 22:14:59;;;;;;;6.82;4.93;;;22.50;99.90;;;;;;8275776;28;20065;-85